createdAt,value
2023-12-02T00:00:46.598Z,0.75
2023-12-02T00:03:14.530Z,0.84
2023-12-02T00:05:42.585Z,0.84
2023-12-02T00:08:10.311Z,0.89
2023-12-02T00:10:38.066Z,0.90
2023-12-02T00:13:05.783Z,0.87
2023-12-02T00:15:33.565Z,0.84
2023-12-02T00:18:01.410Z,0.88
2023-12-02T00:20:29.868Z,0.86
2023-12-02T00:22:57.618Z,0.81
2023-12-02T00:25:25.505Z,0.79
2023-12-02T00:27:53.374Z,0.84
2023-12-02T00:30:21.279Z,0.98
2023-12-02T00:32:49.116Z,0.94
2023-12-02T00:35:16.878Z,0.93
2023-12-02T00:37:44.631Z,0.93
2023-12-02T00:40:12.607Z,0.88
2023-12-02T00:42:40.400Z,0.88
2023-12-02T00:45:08.787Z,0.87
2023-12-02T00:47:36.608Z,0.89
2023-12-02T00:50:04.727Z,0.91
2023-12-02T00:52:32.486Z,0.93
2023-12-02T00:55:00.400Z,0.88
2023-12-02T00:57:28.762Z,0.89
2023-12-02T00:59:56.644Z,0.89
2023-12-02T01:02:24.671Z,0.83
2023-12-02T01:04:52.576Z,0.88
2023-12-02T01:07:20.293Z,0.93
2023-12-02T01:09:48.033Z,0.93
2023-12-02T01:12:15.781Z,0.89
2023-12-02T01:14:43.505Z,0.92
2023-12-02T01:17:11.474Z,0.89
2023-12-02T01:19:39.225Z,0.84
2023-12-02T01:22:07.100Z,0.90
2023-12-02T01:24:34.819Z,0.91
2023-12-02T01:27:02.716Z,0.98
2023-12-02T01:29:30.492Z,1.00
2023-12-02T01:31:58.389Z,1.01
2023-12-02T01:34:26.488Z,1.01
2023-12-02T01:36:54.205Z,0.99
2023-12-02T01:39:22.057Z,1.03
2023-12-02T01:41:49.831Z,1.07
2023-12-02T01:44:17.598Z,1.12
2023-12-02T01:46:45.461Z,1.18
2023-12-02T01:49:13.645Z,1.11
2023-12-02T01:51:41.882Z,1.13
2023-12-02T01:54:09.732Z,1.15
2023-12-02T01:56:37.650Z,1.18
2023-12-02T01:59:05.753Z,1.16
2023-12-02T02:01:33.429Z,1.16
2023-12-02T02:04:01.334Z,1.17
2023-12-02T02:06:29.562Z,1.14
2023-12-02T02:08:57.398Z,1.23
2023-12-02T02:11:25.261Z,1.18
2023-12-02T02:13:53.045Z,1.20
2023-12-02T02:16:20.756Z,1.18
2023-12-02T02:18:48.568Z,1.14
2023-12-02T02:21:21.623Z,1.16
2023-12-02T02:23:49.411Z,1.10
2023-12-02T02:26:17.170Z,1.17
2023-12-02T02:28:44.987Z,1.14
2023-12-02T02:31:12.799Z,1.11
2023-12-02T02:33:40.549Z,1.13
2023-12-02T02:36:09.376Z,1.21
2023-12-02T02:38:37.211Z,1.21
2023-12-02T02:41:05.762Z,1.21
2023-12-02T02:43:33.448Z,1.11
2023-12-02T02:46:01.203Z,1.12
2023-12-02T02:48:29.458Z,1.11
2023-12-02T02:50:57.290Z,1.08
2023-12-02T02:53:25.006Z,1.07
2023-12-02T02:55:52.741Z,1.17
2023-12-02T02:58:20.482Z,1.12
2023-12-02T03:00:48.250Z,1.15
2023-12-02T03:03:16.036Z,1.15
2023-12-02T03:05:43.822Z,1.14
2023-12-02T03:08:11.586Z,1.08
2023-12-02T03:10:40.059Z,1.18
2023-12-02T03:13:08.058Z,1.25
2023-12-02T03:15:35.777Z,1.21
2023-12-02T03:18:03.832Z,1.27
2023-12-02T03:20:31.735Z,1.24
2023-12-02T03:22:59.523Z,1.24
2023-12-02T03:25:27.340Z,1.20
2023-12-02T03:27:55.209Z,1.25
2023-12-02T03:30:23.626Z,1.21
2023-12-02T03:32:51.463Z,1.21
2023-12-02T03:35:19.366Z,1.26
2023-12-02T03:37:47.230Z,1.29
2023-12-02T03:40:14.975Z,1.25
2023-12-02T03:42:42.824Z,1.20
2023-12-02T03:45:11.442Z,1.23
2023-12-02T03:47:39.322Z,1.23
2023-12-02T03:50:07.503Z,1.33
2023-12-02T03:52:35.548Z,1.32
2023-12-02T03:55:03.601Z,1.25
2023-12-02T03:57:31.529Z,1.30
2023-12-02T03:59:59.604Z,1.26
2023-12-02T04:02:27.683Z,1.27
2023-12-02T04:04:55.498Z,1.34
2023-12-02T04:07:23.419Z,1.35
2023-12-02T04:09:51.265Z,1.31
2023-12-02T04:12:19.681Z,1.27
2023-12-02T04:14:47.439Z,1.32
2023-12-02T04:17:15.241Z,1.39
2023-12-02T04:19:43.532Z,1.35
2023-12-02T04:22:11.370Z,1.30
2023-12-02T04:24:39.388Z,1.26
2023-12-02T04:27:08.661Z,1.25
2023-12-02T04:29:41.981Z,1.23
2023-12-02T04:32:10.363Z,1.28
2023-12-02T04:34:38.313Z,1.37
2023-12-02T04:37:08.794Z,1.30
2023-12-02T04:39:36.626Z,1.32
2023-12-02T04:42:04.805Z,1.33
2023-12-02T04:44:32.681Z,1.32
2023-12-02T04:47:00.478Z,1.36
2023-12-02T04:49:28.325Z,1.43
2023-12-02T04:51:56.120Z,1.38
2023-12-02T04:54:23.941Z,1.34
2023-12-02T04:56:51.672Z,1.39
2023-12-02T04:59:19.477Z,1.36
2023-12-02T05:01:47.413Z,1.39
2023-12-02T05:04:15.366Z,1.37
2023-12-02T05:06:43.415Z,1.44
2023-12-02T05:09:11.347Z,1.40
2023-12-02T05:11:41.931Z,1.38
2023-12-02T05:14:09.668Z,1.43
2023-12-02T05:16:37.354Z,1.42
2023-12-02T05:19:05.155Z,1.51
2023-12-02T05:21:32.889Z,1.52
2023-12-02T05:24:01.503Z,1.45
2023-12-02T05:26:30.168Z,1.44
2023-12-02T05:28:57.930Z,1.47
2023-12-02T05:31:25.785Z,1.43
2023-12-02T05:33:53.583Z,1.45
2023-12-02T05:36:21.596Z,1.54
2023-12-02T05:38:49.461Z,1.43
2023-12-02T05:41:17.312Z,1.54
2023-12-02T05:43:45.095Z,1.54
2023-12-02T05:46:19.323Z,1.53
2023-12-02T05:48:47.295Z,1.37
2023-12-02T05:51:15.253Z,1.35
2023-12-02T05:53:43.024Z,1.38
2023-12-02T05:56:11.042Z,1.54
2023-12-02T05:58:38.968Z,1.58
2023-12-02T06:01:07.057Z,1.31
2023-12-02T06:03:34.836Z,1.32
2023-12-02T06:06:02.735Z,1.52
2023-12-02T06:08:30.581Z,1.55
2023-12-02T06:10:58.361Z,1.54
2023-12-02T06:13:26.056Z,1.53
2023-12-02T06:15:53.810Z,1.53
2023-12-02T06:18:21.574Z,1.51
2023-12-02T06:20:49.338Z,1.49
2023-12-02T06:23:17.033Z,1.55
2023-12-02T06:25:45.153Z,1.58
2023-12-02T06:28:12.909Z,1.56
2023-12-02T06:30:41.038Z,1.52
2023-12-02T06:33:08.932Z,1.48
2023-12-02T06:35:36.685Z,1.47
2023-12-02T06:38:04.411Z,1.56
2023-12-02T06:40:32.106Z,1.58
2023-12-02T06:42:59.834Z,1.62
2023-12-02T06:45:27.660Z,1.54
2023-12-02T06:47:55.522Z,1.58
2023-12-02T06:50:23.580Z,1.65
2023-12-02T06:52:52.271Z,1.57
2023-12-02T06:57:50.573Z,1.64
2023-12-02T07:00:20.314Z,1.59
2023-12-02T07:02:48.122Z,1.64
2023-12-02T07:05:15.895Z,1.56
2023-12-02T07:07:43.721Z,1.59
2023-12-02T07:10:11.427Z,1.70
2023-12-02T07:12:39.325Z,1.69
2023-12-02T07:15:09.178Z,1.70
2023-12-02T07:17:37.127Z,1.69
2023-12-02T07:20:05.312Z,1.70
2023-12-02T07:22:33.021Z,1.73
2023-12-02T07:25:00.762Z,1.67
2023-12-02T07:27:30.176Z,1.67
2023-12-02T07:32:29.036Z,1.73
2023-12-02T07:34:56.851Z,1.74
2023-12-02T07:37:24.628Z,1.71
2023-12-02T07:39:52.340Z,1.68
2023-12-02T07:42:20.002Z,1.72
2023-12-02T07:44:47.817Z,1.69
2023-12-02T07:47:15.601Z,1.55
2023-12-02T07:49:43.479Z,1.50
2023-12-02T07:52:11.232Z,1.52
2023-12-02T07:54:39.060Z,1.63
2023-12-02T07:57:07.106Z,1.65
2023-12-02T07:59:34.847Z,1.59
2023-12-02T08:02:02.716Z,1.66
2023-12-02T08:04:30.679Z,1.74
2023-12-02T08:06:58.571Z,1.77
2023-12-02T08:09:26.244Z,1.75
2023-12-02T08:11:53.901Z,1.71
2023-12-02T08:14:21.660Z,1.68
2023-12-02T08:16:49.913Z,1.59
2023-12-02T08:19:18.047Z,1.75
2023-12-02T08:21:45.863Z,1.71
2023-12-02T08:24:13.623Z,1.68
2023-12-02T08:26:41.444Z,1.66
2023-12-02T08:29:09.253Z,1.65
2023-12-02T08:31:37.007Z,1.75
2023-12-02T08:34:04.764Z,1.79
2023-12-02T08:36:43.245Z,1.77
2023-12-02T08:39:11.189Z,1.71
2023-12-02T08:41:39.006Z,1.74
2023-12-02T08:44:06.742Z,1.80
2023-12-02T08:46:34.514Z,1.82
2023-12-02T08:49:02.479Z,1.84
2023-12-02T08:51:30.406Z,1.80
2023-12-02T08:54:02.025Z,1.82
2023-12-02T08:56:30.214Z,1.85
2023-12-02T08:58:58.493Z,1.85
2023-12-02T09:01:27.258Z,1.83
2023-12-02T09:03:55.206Z,1.91
2023-12-02T09:06:23.784Z,2.01
2023-12-02T09:08:55.212Z,2.02
2023-12-02T09:11:23.116Z,2.08
2023-12-02T09:13:51.362Z,2.03
2023-12-02T09:16:19.045Z,2.02
2023-12-02T09:18:47.124Z,2.06
2023-12-02T09:21:46.056Z,2.08
2023-12-02T09:24:37.858Z,2.02
2023-12-02T09:27:09.020Z,2.00
2023-12-02T09:29:42.948Z,1.96
2023-12-02T09:32:46.617Z,1.95
2023-12-02T09:35:14.541Z,1.95
2023-12-02T09:37:59.446Z,2.13
2023-12-02T09:40:39.664Z,2.22
2023-12-02T09:43:45.878Z,2.19
2023-12-02T09:46:32.173Z,2.07
2023-12-02T09:49:32.527Z,2.12
2023-12-02T09:52:00.301Z,2.03
2023-12-02T09:54:53.417Z,2.17
2023-12-02T09:57:27.178Z,2.26
2023-12-02T10:00:14.178Z,2.25
2023-12-02T10:03:00.894Z,2.24
2023-12-02T10:05:39.397Z,2.28
2023-12-02T10:08:49.451Z,2.41
2023-12-02T10:11:45.249Z,2.38
2023-12-02T10:14:33.620Z,2.36
2023-12-02T10:17:04.193Z,2.46
2023-12-02T10:19:37.783Z,2.43
2023-12-02T10:22:08.193Z,2.39
2023-12-02T10:25:07.204Z,2.41
2023-12-02T10:27:40.364Z,2.29
2023-12-02T10:30:17.248Z,2.27
2023-12-02T10:33:09.674Z,2.44
2023-12-02T10:35:42.694Z,2.32
2023-12-02T10:38:28.151Z,2.44
2023-12-02T10:41:31.233Z,2.32
2023-12-02T10:44:05.115Z,2.36
2023-12-02T10:46:33.570Z,2.36
2023-12-02T10:49:02.689Z,2.44
2023-12-02T10:51:35.176Z,2.48
2023-12-02T10:54:06.330Z,2.48
2023-12-02T10:56:37.407Z,2.51
2023-12-02T10:59:05.683Z,2.61
2023-12-02T11:02:00.287Z,2.58
2023-12-02T11:04:39.964Z,2.41
2023-12-02T11:07:11.440Z,2.35
2023-12-02T11:09:55.349Z,2.39
2023-12-02T11:13:05.389Z,2.43
2023-12-02T11:15:50.070Z,2.44
2023-12-02T11:18:31.546Z,2.38
2023-12-02T11:21:06.264Z,2.48
2023-12-02T11:23:58.994Z,2.55
2023-12-02T11:26:39.022Z,2.58
2023-12-02T11:29:41.277Z,2.51
2023-12-02T11:32:29.987Z,2.58
2023-12-02T11:35:20.317Z,2.61
2023-12-02T11:37:47.960Z,2.58
2023-12-02T11:40:23.685Z,2.49
2023-12-02T11:42:58.057Z,2.37
2023-12-02T11:45:40.032Z,2.40
2023-12-02T11:48:12.610Z,2.37
2023-12-02T11:50:49.448Z,2.49
2023-12-02T11:53:40.746Z,2.58
2023-12-02T11:56:13.221Z,2.67
2023-12-02T11:58:53.029Z,2.79
2023-12-02T12:01:36.584Z,2.81
2023-12-02T12:04:32.143Z,2.77
2023-12-02T12:07:21.839Z,2.66
2023-12-02T12:10:12.211Z,2.66
2023-12-02T12:12:43.811Z,2.69
2023-12-02T12:15:11.671Z,2.63
2023-12-02T12:17:39.824Z,2.69
2023-12-02T12:20:21.151Z,2.68
2023-12-02T12:22:49.419Z,2.58
2023-12-02T12:25:17.347Z,2.63
2023-12-02T12:27:45.700Z,2.66
2023-12-02T12:30:13.737Z,2.71
2023-12-02T12:32:41.684Z,2.61
2023-12-02T12:35:16.268Z,2.80
2023-12-02T12:37:45.981Z,2.80
2023-12-02T12:40:14.174Z,2.92
2023-12-02T12:42:51.631Z,2.92
2023-12-02T12:45:19.462Z,2.97
2023-12-02T12:47:47.381Z,3.01
2023-12-02T12:50:16.989Z,2.95
2023-12-02T12:52:51.616Z,2.93
2023-12-02T12:55:31.077Z,2.95
2023-12-02T12:58:01.592Z,2.85
2023-12-02T13:00:34.983Z,2.77
2023-12-02T13:03:02.774Z,2.71
2023-12-02T13:05:40.314Z,2.67
2023-12-02T13:08:30.512Z,2.78
2023-12-02T13:11:12.131Z,2.61
2023-12-02T13:13:53.430Z,2.55
2023-12-02T13:16:23.748Z,2.52
2023-12-02T13:18:55.145Z,2.54
2023-12-02T13:21:24.363Z,2.78
2023-12-02T13:23:55.150Z,2.85
2023-12-02T13:26:34.564Z,2.91
2023-12-02T13:29:05.672Z,2.98
2023-12-02T13:31:39.174Z,2.93
2023-12-02T13:34:22.314Z,2.78
2023-12-02T13:36:54.190Z,2.76
2023-12-02T13:39:28.771Z,2.80
2023-12-02T13:42:00.218Z,2.82
2023-12-02T13:44:31.763Z,2.82
2023-12-02T13:47:21.733Z,2.82
2023-12-02T13:49:59.314Z,2.72
2023-12-02T13:53:00.714Z,2.65
2023-12-02T13:55:56.046Z,2.58
2023-12-02T13:58:23.878Z,2.48
2023-12-02T14:01:10.251Z,2.53
2023-12-02T14:03:52.969Z,2.52
2023-12-02T14:06:25.358Z,2.61
2023-12-02T14:08:58.890Z,2.72
2023-12-02T14:11:51.323Z,2.77
2023-12-02T14:14:40.639Z,2.66
2023-12-02T14:17:38.754Z,2.53
2023-12-02T14:20:41.707Z,2.45
2023-12-02T14:23:21.302Z,2.56
2023-12-02T14:26:32.525Z,2.50
2023-12-02T14:29:18.407Z,2.44
2023-12-02T14:32:08.813Z,2.42
2023-12-02T14:35:01.799Z,2.49
2023-12-02T14:37:52.319Z,2.35
2023-12-02T14:40:29.018Z,2.34
2023-12-02T14:43:05.842Z,2.53
2023-12-02T14:45:37.908Z,2.49
2023-12-02T14:48:13.180Z,2.50
2023-12-02T14:50:45.686Z,2.66
2023-12-02T14:53:15.297Z,2.69
2023-12-02T14:55:43.453Z,2.72
2023-12-02T14:58:29.826Z,2.47
2023-12-02T15:01:04.680Z,2.23
2023-12-02T15:03:36.310Z,2.04
2023-12-02T15:06:06.628Z,2.02
2023-12-02T15:08:41.942Z,2.03
2023-12-02T15:11:10.984Z,2.27
2023-12-02T15:13:39.043Z,2.37
2023-12-02T15:16:08.003Z,2.42
2023-12-02T15:18:37.134Z,2.38
2023-12-02T15:21:14.668Z,2.41
2023-12-02T15:23:43.852Z,2.31
2023-12-02T15:26:20.796Z,2.29
2023-12-02T15:28:54.376Z,2.31
2023-12-02T15:31:22.153Z,2.26
2023-12-02T15:33:52.273Z,2.32
2023-12-02T15:36:21.016Z,2.39
2023-12-02T15:38:51.152Z,2.37
2023-12-02T15:41:19.728Z,2.36
2023-12-02T15:43:55.050Z,2.34
2023-12-02T15:46:23.318Z,2.29
2023-12-02T15:48:53.767Z,2.40
2023-12-02T15:51:21.787Z,2.36
2023-12-02T15:53:52.595Z,2.36
2023-12-02T15:56:22.574Z,2.34
2023-12-02T15:58:51.811Z,2.35
2023-12-02T16:01:21.143Z,2.35
2023-12-02T16:03:50.168Z,2.36
2023-12-02T16:06:26.476Z,2.32
2023-12-02T16:08:55.009Z,2.21
2023-12-02T16:11:23.792Z,2.31
2023-12-02T16:13:52.888Z,2.26
2023-12-02T16:16:21.620Z,2.38
2023-12-02T16:21:20.211Z,2.45
2023-12-02T16:23:49.333Z,2.45
2023-12-02T16:26:18.257Z,2.35
2023-12-02T16:28:46.946Z,2.31
2023-12-02T16:31:14.709Z,2.29
2023-12-02T16:33:43.079Z,2.26
2023-12-02T16:36:14.595Z,2.28
2023-12-02T16:38:42.635Z,2.27
2023-12-02T16:41:10.461Z,2.33
2023-12-02T16:43:38.476Z,2.37
2023-12-02T16:46:08.187Z,2.42
2023-12-02T16:48:37.571Z,2.35
2023-12-02T16:51:07.787Z,2.26
2023-12-02T16:53:36.345Z,2.20
2023-12-02T16:56:14.619Z,2.20
2023-12-02T16:58:49.019Z,2.15
2023-12-02T17:01:27.160Z,2.26
2023-12-02T17:03:55.780Z,2.15
2023-12-02T17:06:24.134Z,2.06
2023-12-02T17:08:58.214Z,2.11
2023-12-02T17:11:30.855Z,1.95
2023-12-02T17:14:01.332Z,1.87
2023-12-02T17:16:36.004Z,1.84
2023-12-02T17:19:11.548Z,1.80
2023-12-02T17:21:56.771Z,1.70
2023-12-02T17:24:28.845Z,1.77
2023-12-02T17:26:57.533Z,1.75
2023-12-02T17:29:30.188Z,1.75
2023-12-02T17:31:59.658Z,1.68
2023-12-02T17:34:29.598Z,1.76
2023-12-02T17:36:58.217Z,1.73
2023-12-02T17:39:26.251Z,1.71
2023-12-02T17:41:54.353Z,1.58
2023-12-02T17:44:22.098Z,1.62
2023-12-02T17:46:50.991Z,1.65
2023-12-02T17:49:20.547Z,1.59
2023-12-02T17:51:48.444Z,1.53
2023-12-02T17:54:16.333Z,1.50
2023-12-02T17:56:44.188Z,1.61
2023-12-02T17:59:12.610Z,1.54
2023-12-02T18:01:40.491Z,1.55
2023-12-02T18:04:08.257Z,1.60
2023-12-02T18:06:36.395Z,1.69
2023-12-02T18:09:04.300Z,1.69
2023-12-02T18:11:32.236Z,1.56
2023-12-02T18:14:00.016Z,1.61
2023-12-02T18:16:27.722Z,1.65
2023-12-02T18:18:57.522Z,1.72
2023-12-02T18:21:25.647Z,1.84
2023-12-02T18:23:58.852Z,1.75
2023-12-02T18:26:26.831Z,1.79
2023-12-02T18:28:54.474Z,1.88
2023-12-02T18:31:22.641Z,1.99
2023-12-02T18:33:50.504Z,1.93
2023-12-02T18:36:18.355Z,2.00
2023-12-02T18:38:46.125Z,2.09
2023-12-02T18:41:13.868Z,1.94
2023-12-02T18:43:41.534Z,1.94
2023-12-02T18:46:10.308Z,1.93
2023-12-02T18:48:38.230Z,1.94
2023-12-02T18:51:06.318Z,1.92
2023-12-02T18:53:34.098Z,1.89
2023-12-02T18:56:01.871Z,2.02
2023-12-02T18:58:32.416Z,2.02
2023-12-02T19:01:00.264Z,2.14
2023-12-02T19:03:28.183Z,2.20
2023-12-02T19:05:56.577Z,2.18
2023-12-02T19:08:24.417Z,1.99
2023-12-02T19:10:52.300Z,1.99
2023-12-02T19:13:20.066Z,1.92
2023-12-02T19:15:47.828Z,2.02
2023-12-02T19:18:15.788Z,1.92
2023-12-02T19:20:43.679Z,1.90
2023-12-02T19:23:11.633Z,1.95
2023-12-02T19:25:39.758Z,2.09
2023-12-02T19:28:07.679Z,2.02
2023-12-02T19:30:35.425Z,2.05
2023-12-02T19:33:03.576Z,2.02
2023-12-02T19:35:31.627Z,2.03
2023-12-02T19:38:03.117Z,2.03
2023-12-02T19:40:31.036Z,2.03
2023-12-02T19:43:02.067Z,2.02
2023-12-02T19:45:30.267Z,2.09
2023-12-02T19:47:58.147Z,2.09
2023-12-02T19:50:25.957Z,1.99
2023-12-02T19:52:53.849Z,1.90
2023-12-02T19:55:21.524Z,1.84
2023-12-02T19:57:49.385Z,1.96
2023-12-02T20:00:17.992Z,1.94
2023-12-02T20:02:45.786Z,1.90
2023-12-02T20:05:14.767Z,1.94
2023-12-02T20:07:42.675Z,1.93
2023-12-02T20:10:11.553Z,1.75
2023-12-02T20:12:39.392Z,1.77
2023-12-02T20:15:07.758Z,1.84
2023-12-02T20:17:35.610Z,1.88
2023-12-02T20:20:04.116Z,1.86
2023-12-02T20:22:31.906Z,1.90
2023-12-02T20:24:59.668Z,1.86
2023-12-02T20:27:27.564Z,2.03
2023-12-02T20:29:55.315Z,2.16
2023-12-02T20:32:23.072Z,1.99
2023-12-02T20:34:51.513Z,1.87
2023-12-02T20:37:20.372Z,1.95
2023-12-02T20:39:48.249Z,2.02
2023-12-02T20:42:16.117Z,2.02
2023-12-02T20:44:43.862Z,1.87
2023-12-02T20:47:11.728Z,1.92
2023-12-02T20:49:39.624Z,1.88
2023-12-02T20:52:08.009Z,1.93
2023-12-02T20:54:35.830Z,1.94
2023-12-02T20:57:03.879Z,1.94
2023-12-02T20:59:32.700Z,2.02
2023-12-02T21:02:00.653Z,2.07
2023-12-02T21:04:28.621Z,2.04
2023-12-02T21:06:56.377Z,1.93
2023-12-02T21:09:24.193Z,1.95
2023-12-02T21:11:51.960Z,1.98
2023-12-02T21:14:19.794Z,1.99
2023-12-02T21:16:47.572Z,2.01
2023-12-02T21:19:18.380Z,1.99
2023-12-02T21:21:47.696Z,1.94
2023-12-02T21:24:15.931Z,1.88
2023-12-02T21:26:47.019Z,1.81
2023-12-02T21:29:14.861Z,1.89
2023-12-02T21:31:42.814Z,1.96
2023-12-02T21:34:12.289Z,1.83
2023-12-02T21:36:40.248Z,1.80
2023-12-02T21:39:14.414Z,1.90
2023-12-02T21:41:42.412Z,1.91
2023-12-02T21:44:10.184Z,1.84
2023-12-02T21:46:37.852Z,1.80
2023-12-02T21:49:12.378Z,1.93
2023-12-02T21:51:45.488Z,1.91
2023-12-02T21:54:19.821Z,1.93
2023-12-02T21:56:50.275Z,1.88
2023-12-02T21:59:19.689Z,1.86
2023-12-02T22:01:50.489Z,1.96
2023-12-02T22:04:23.076Z,1.94
2023-12-02T22:07:04.476Z,2.00
2023-12-02T22:09:38.564Z,1.97
2023-12-02T22:12:09.323Z,1.97
2023-12-02T22:14:37.245Z,1.96
2023-12-02T22:17:08.837Z,1.97
2023-12-02T22:19:37.198Z,1.94
2023-12-02T22:22:39.642Z,2.07
2023-12-02T22:25:07.490Z,1.98
2023-12-02T22:27:38.257Z,2.02
2023-12-02T22:30:24.618Z,2.01
2023-12-02T22:33:00.688Z,1.98
2023-12-02T22:35:45.958Z,1.74
2023-12-02T22:38:37.471Z,1.74
2023-12-02T22:41:07.700Z,1.84
2023-12-02T22:43:48.058Z,1.90
2023-12-02T22:46:20.748Z,2.00
2023-12-02T22:48:51.917Z,2.04
2023-12-02T22:51:25.750Z,2.10
2023-12-02T22:53:55.706Z,1.93
2023-12-02T22:56:24.496Z,1.81
2023-12-02T22:58:53.049Z,1.97
2023-12-02T23:01:30.539Z,1.97
2023-12-02T23:03:59.278Z,1.99
2023-12-02T23:06:30.440Z,2.05
2023-12-02T23:09:00.512Z,2.17
2023-12-02T23:11:53.090Z,2.09
2023-12-02T23:14:40.975Z,2.06
2023-12-02T23:17:14.516Z,1.95
2023-12-02T23:19:42.447Z,1.99
2023-12-02T23:22:10.290Z,2.14
2023-12-02T23:24:39.337Z,2.17
2023-12-02T23:27:14.328Z,2.13
2023-12-02T23:29:42.137Z,2.10
2023-12-02T23:32:10.008Z,2.18
2023-12-02T23:34:37.859Z,2.13
2023-12-02T23:37:05.746Z,2.15
2023-12-02T23:39:33.558Z,2.21
2023-12-02T23:42:03.645Z,2.26
2023-12-02T23:44:44.682Z,2.28
2023-12-02T23:47:19.903Z,2.20
2023-12-02T23:49:47.718Z,2.20
2023-12-02T23:52:15.612Z,2.10
2023-12-02T23:54:43.562Z,2.15
2023-12-02T23:57:11.879Z,2.13
2023-12-02T23:59:39.977Z,2.22
